Nakhon Si Thammarat Airport
VTSF : now visible

Airfield :











YOU CAN JOIN US ON...

 
LOGIN :

Register | Disclaimer

   EN    FR    IT 

 









Legend :    VFR   Marginal VFR   IFR   Intensive IFR   Very Intensive IFR
Visi :
Ceiling :
>= 8 km
>= 3000ft
5 to 8 km
1000 to 3000 ft
1500m to 5 km
500 to 1000 ft
800 to 1500m
200 to 500 ft
< 800m
< 200 ft
Symbols :   Thunderstorms  Fog  Heavy snow  Heavy precipitations  Wind > 20 kt






- Airport Elevation : 13 ft
- IATA code : NST


VTSF - Nakhon Si Thammarat

CURRENT METAR :
  • 212300Z 00000KT 8000 FEW016TCU 26/25 Q1014 NOSIG

TAF TAF VTSF
Valid from the 21 at 18:00 until the 22 at 18:00 UTC


211700Z 2118/2218 12005KT 8000 SCT020
TEMPO 2118/2124 5000 RA SCT015 BKN100
TEMPO 2200/2206 5000 RA SCT015 BKN100



MET'MAP, your aeronautical weather chart ! - Copyright ORBIFLY December 2007 - Disclaimer

ORBIFLY MET'MAP TEAM :

Programming & Development : Alexandra Zaïnal
Concept & original design : Baudouin d'Aumeries
Assistance for programming : Marc-Olivier Méhu
Technical & hardware support : Manuel Goepfert

Contact : metmap@orbifly.com




SOURCES & CREDITS :

   NOAA       Earth
Advisory